createdAt,value
2018-08-28T00:00:17.941Z,17.50
2018-08-28T00:02:46.017Z,17.40
2018-08-28T00:05:14.075Z,17.40
2018-08-28T00:07:42.147Z,17.30
2018-08-28T00:10:10.206Z,17.30
2018-08-28T00:12:38.275Z,17.30
2018-08-28T00:15:06.321Z,17.30
2018-08-28T00:17:34.466Z,17.30
2018-08-28T00:20:02.513Z,17.20
2018-08-28T00:22:30.595Z,17.20
2018-08-28T00:24:58.653Z,17.20
2018-08-28T00:27:26.887Z,17.20
2018-08-28T00:29:55.022Z,17.20
2018-08-28T00:32:23.082Z,17.30
2018-08-28T00:34:51.122Z,17.20
2018-08-28T00:37:19.187Z,17.30
2018-08-28T00:39:47.242Z,17.30
2018-08-28T00:42:15.303Z,17.30
2018-08-28T00:44:43.353Z,17.30
2018-08-28T00:47:11.394Z,17.30
2018-08-28T00:49:39.495Z,17.30
2018-08-28T00:52:07.600Z,17.30
2018-08-28T00:54:35.708Z,17.30
2018-08-28T00:57:03.864Z,17.30
2018-08-28T00:59:31.902Z,17.30
2018-08-28T01:01:59.945Z,17.30
2018-08-28T01:04:28.355Z,17.30
2018-08-28T01:06:56.418Z,17.30
2018-08-28T01:09:24.506Z,17.30
2018-08-28T01:11:52.537Z,17.30
2018-08-28T01:14:20.599Z,17.30
2018-08-28T01:16:48.650Z,17.20
2018-08-28T01:19:16.725Z,17.20
2018-08-28T01:21:44.819Z,17.30
2018-08-28T01:24:12.982Z,17.20
2018-08-28T01:26:41.037Z,17.30
2018-08-28T01:29:09.110Z,17.30
2018-08-28T01:31:37.163Z,17.30
2018-08-28T01:34:05.250Z,17.30
2018-08-28T01:36:33.534Z,17.20
2018-08-28T01:39:01.614Z,17.10
2018-08-28T01:41:29.654Z,17.10
2018-08-28T01:43:57.743Z,17.10
2018-08-28T01:46:25.822Z,17.10
2018-08-28T01:48:53.994Z,17.10
2018-08-28T01:51:22.039Z,17.10
2018-08-28T01:53:50.296Z,17.10
2018-08-28T01:56:18.347Z,17.10
2018-08-28T01:58:46.420Z,17.10
2018-08-28T02:01:14.486Z,17.10
2018-08-28T02:03:42.576Z,17.10
2018-08-28T02:06:10.719Z,17.00
2018-08-28T02:08:38.777Z,17.00
2018-08-28T02:11:06.823Z,16.90
2018-08-28T02:13:34.906Z,16.90
2018-08-28T02:16:03.005Z,16.90
2018-08-28T02:18:31.162Z,16.80
2018-08-28T02:20:59.239Z,16.90
2018-08-28T02:23:27.285Z,16.80
2018-08-28T02:25:55.377Z,16.80
2018-08-28T02:28:23.435Z,16.80
2018-08-28T02:30:51.564Z,16.80
2018-08-28T02:33:19.606Z,16.80
2018-08-28T02:35:47.675Z,16.70
2018-08-28T02:38:15.721Z,16.70
2018-08-28T02:40:43.774Z,16.70
2018-08-28T02:43:11.860Z,16.60
2018-08-28T02:45:39.921Z,16.60
2018-08-28T02:48:07.958Z,16.60
2018-08-28T02:50:36.027Z,16.60
2018-08-28T02:53:04.077Z,16.60
2018-08-28T02:55:32.152Z,16.60
2018-08-28T02:58:00.201Z,16.60
2018-08-28T03:00:28.294Z,16.60
2018-08-28T03:02:56.409Z,16.60
2018-08-28T03:05:24.472Z,16.60
2018-08-28T03:07:52.606Z,16.60
2018-08-28T03:10:20.685Z,16.70
2018-08-28T03:12:48.738Z,16.70
2018-08-28T03:15:16.789Z,16.70
2018-08-28T03:17:44.818Z,16.60
2018-08-28T03:20:12.897Z,16.70
2018-08-28T03:22:40.948Z,16.60
2018-08-28T03:25:09.026Z,16.70
2018-08-28T03:27:37.353Z,16.70
2018-08-28T03:30:05.398Z,16.60
2018-08-28T03:32:33.465Z,16.70
2018-08-28T03:35:01.535Z,16.70
2018-08-28T03:37:29.578Z,16.70
2018-08-28T03:39:57.656Z,16.60
2018-08-28T03:42:25.741Z,16.60
2018-08-28T03:44:53.859Z,16.60
2018-08-28T03:47:21.881Z,16.60
2018-08-28T03:49:49.945Z,16.60
2018-08-28T03:52:18.036Z,16.60
2018-08-28T03:54:46.086Z,16.60
2018-08-28T03:57:14.268Z,16.60
2018-08-28T03:59:42.482Z,16.60
2018-08-28T04:02:10.535Z,16.60
2018-08-28T04:04:38.582Z,16.60
2018-08-28T04:07:06.653Z,16.50
2018-08-28T04:09:34.709Z,16.50
2018-08-28T04:12:02.810Z,16.50
2018-08-28T04:14:30.858Z,16.50
2018-08-28T04:16:58.932Z,16.50
2018-08-28T04:19:26.986Z,16.50
2018-08-28T04:21:55.045Z,16.60
2018-08-28T04:24:23.172Z,16.60
2018-08-28T04:26:51.259Z,16.60
2018-08-28T04:29:19.818Z,16.60
2018-08-28T04:31:47.888Z,16.60
2018-08-28T04:34:15.962Z,16.60
2018-08-28T04:36:44.074Z,16.60
2018-08-28T04:39:12.060Z,16.50
2018-08-28T04:41:40.108Z,16.40
2018-08-28T04:44:08.177Z,16.50
2018-08-28T04:46:36.238Z,16.40
2018-08-28T04:49:04.413Z,16.50
2018-08-28T04:51:32.508Z,16.40
2018-08-28T04:54:00.587Z,16.40
2018-08-28T04:56:28.645Z,16.50
2018-08-28T04:58:56.797Z,16.40
2018-08-28T05:01:24.878Z,16.40
2018-08-28T05:03:52.961Z,16.40
2018-08-28T05:06:21.012Z,16.40
2018-08-28T05:08:49.079Z,16.40
2018-08-28T05:11:17.201Z,16.40
2018-08-28T05:13:45.253Z,16.40
2018-08-28T05:16:13.324Z,16.50
2018-08-28T05:18:41.431Z,16.50
2018-08-28T05:21:09.484Z,16.60
2018-08-28T05:23:37.579Z,16.50
2018-08-28T05:26:05.638Z,16.60
2018-08-28T05:28:33.705Z,16.60
2018-08-28T05:31:01.817Z,16.70
2018-08-28T05:33:29.943Z,16.70
2018-08-28T05:35:57.968Z,16.80
2018-08-28T05:38:26.037Z,16.70
2018-08-28T05:40:54.090Z,16.80
2018-08-28T05:43:22.149Z,16.70
2018-08-28T05:45:50.346Z,16.70
2018-08-28T05:48:18.439Z,16.70
2018-08-28T05:50:46.518Z,16.70
2018-08-28T05:53:14.594Z,16.70
2018-08-28T05:55:42.648Z,16.70
2018-08-28T05:58:10.738Z,16.70
2018-08-28T06:00:38.878Z,16.70
2018-08-28T06:03:07.218Z,16.70
2018-08-28T06:05:35.243Z,16.70
2018-08-28T06:08:03.313Z,16.70
2018-08-28T06:10:31.359Z,16.70
2018-08-28T06:12:59.452Z,16.70
2018-08-28T06:15:27.488Z,16.70
2018-08-28T06:17:55.545Z,16.60
2018-08-28T06:20:23.610Z,16.70
2018-08-28T06:22:51.709Z,16.70
2018-08-28T06:25:19.710Z,16.70
2018-08-28T06:27:47.769Z,16.70
2018-08-28T06:30:15.813Z,16.80
2018-08-28T06:32:43.965Z,16.80
2018-08-28T06:35:12.031Z,16.80
2018-08-28T06:37:40.077Z,16.80
2018-08-28T06:40:08.125Z,16.90
2018-08-28T06:42:36.301Z,16.90
2018-08-28T06:45:04.406Z,16.90
2018-08-28T06:47:32.562Z,16.90
2018-08-28T06:50:00.624Z,17.00
2018-08-28T06:52:28.667Z,17.00
2018-08-28T06:54:56.698Z,17.10
2018-08-28T06:57:24.757Z,17.10
2018-08-28T06:59:52.842Z,17.30
2018-08-28T07:02:20.977Z,17.30
2018-08-28T07:04:48.984Z,17.20
2018-08-28T07:07:17.026Z,17.20
2018-08-28T07:09:45.109Z,17.30
2018-08-28T07:12:13.197Z,17.40
2018-08-28T07:14:41.242Z,17.40
2018-08-28T07:17:09.270Z,17.50
2018-08-28T07:19:37.365Z,17.50
2018-08-28T07:22:05.509Z,17.60
2018-08-28T07:24:33.667Z,17.70
2018-08-28T07:27:01.715Z,17.70
2018-08-28T07:29:29.781Z,17.80
2018-08-28T07:31:57.865Z,17.90
2018-08-28T07:34:25.929Z,17.90
2018-08-28T07:36:54.020Z,18.00
2018-08-28T07:39:22.122Z,18.10
2018-08-28T07:41:50.145Z,18.20
2018-08-28T07:44:18.249Z,18.20
2018-08-28T07:46:46.321Z,18.10
2018-08-28T07:49:14.410Z,18.20
2018-08-28T07:51:42.460Z,18.30
2018-08-28T07:54:10.527Z,18.50
2018-08-28T07:56:38.574Z,18.60
2018-08-28T07:59:06.667Z,18.60
2018-08-28T08:01:34.838Z,18.60
2018-08-28T08:04:02.838Z,18.60
2018-08-28T08:06:30.907Z,18.70
2018-08-28T08:08:58.979Z,18.70
2018-08-28T08:11:27.044Z,18.80
2018-08-28T08:13:55.134Z,19.10
2018-08-28T08:16:23.175Z,19.10
2018-08-28T08:18:51.277Z,19.20
2018-08-28T08:21:19.370Z,19.10
2018-08-28T08:23:47.425Z,19.10
2018-08-28T08:26:15.571Z,19.10
2018-08-28T08:28:43.632Z,19.10
2018-08-28T08:31:11.665Z,19.20
2018-08-28T08:33:39.742Z,19.20
2018-08-28T08:36:07.795Z,19.20
2018-08-28T08:38:35.910Z,19.30
2018-08-28T08:41:03.976Z,19.50
2018-08-28T08:43:32.077Z,19.60
2018-08-28T08:46:00.201Z,19.70
2018-08-28T08:48:28.401Z,19.70
2018-08-28T08:50:56.493Z,19.80
2018-08-28T08:53:24.583Z,19.90
2018-08-28T08:55:52.769Z,20.00
2018-08-28T08:58:20.819Z,20.00
2018-08-28T09:00:48.941Z,20.10
2018-08-28T09:03:16.970Z,20.30
2018-08-28T09:05:45.034Z,20.30
2018-08-28T09:08:13.098Z,20.60
2018-08-28T09:10:41.393Z,20.70
2018-08-28T09:13:09.419Z,20.80
2018-08-28T09:15:37.484Z,20.90
2018-08-28T09:18:05.795Z,20.90
2018-08-28T09:20:33.911Z,21.10
2018-08-28T09:23:01.986Z,21.10
2018-08-28T09:25:30.074Z,20.80
2018-08-28T09:27:58.148Z,20.80
2018-08-28T09:30:26.226Z,20.80
2018-08-28T09:32:54.307Z,20.90
2018-08-28T09:35:22.374Z,21.10
2018-08-28T09:37:50.434Z,21.30
2018-08-28T09:40:18.502Z,21.40
2018-08-28T09:42:46.569Z,21.40
2018-08-28T09:45:14.694Z,21.50
2018-08-28T09:47:42.757Z,21.60
2018-08-28T09:50:10.837Z,21.60
2018-08-28T09:52:38.909Z,21.50
2018-08-28T09:55:07.067Z,21.50
2018-08-28T09:57:35.147Z,21.60
2018-08-28T10:00:03.410Z,21.50
2018-08-28T10:02:31.486Z,21.60
2018-08-28T10:04:59.562Z,21.90
2018-08-28T10:07:27.619Z,22.20
2018-08-28T10:09:55.702Z,22.20
2018-08-28T10:12:23.742Z,22.30
2018-08-28T10:14:51.910Z,22.30
2018-08-28T10:17:20.004Z,22.40
2018-08-28T10:19:48.256Z,22.50
2018-08-28T10:22:16.305Z,22.60
2018-08-28T10:24:44.377Z,22.70
2018-08-28T10:27:12.438Z,22.80
2018-08-28T10:29:41.322Z,22.70
2018-08-28T10:32:09.390Z,22.70
2018-08-28T10:34:37.443Z,22.50
2018-08-28T10:37:05.539Z,22.50
2018-08-28T10:39:33.578Z,22.40
2018-08-28T10:42:01.633Z,22.40
2018-08-28T10:44:29.690Z,22.80
2018-08-28T10:46:57.811Z,22.90
2018-08-28T10:49:25.798Z,22.90
2018-08-28T10:51:54.608Z,22.80
2018-08-28T10:54:22.664Z,22.70
2018-08-28T10:56:50.731Z,22.70
2018-08-28T10:59:18.751Z,22.60
2018-08-28T11:01:46.814Z,22.60
2018-08-28T11:04:14.841Z,22.50
2018-08-28T11:06:42.913Z,22.60
2018-08-28T11:09:11.017Z,22.80
2018-08-28T11:11:39.184Z,22.70
2018-08-28T11:14:07.210Z,22.70
2018-08-28T11:16:35.314Z,23.00
2018-08-28T11:19:03.382Z,23.50
2018-08-28T11:21:31.454Z,23.70
2018-08-28T11:23:59.516Z,23.90
2018-08-28T11:26:27.579Z,24.00
2018-08-28T11:28:55.617Z,24.20
2018-08-28T11:31:23.755Z,24.10
2018-08-28T11:33:51.818Z,24.00
2018-08-28T11:36:19.879Z,24.30
2018-08-28T11:38:47.931Z,24.40
2018-08-28T11:41:15.980Z,24.70
2018-08-28T11:43:44.013Z,24.40
2018-08-28T11:46:12.086Z,24.50
2018-08-28T11:48:40.121Z,24.60
2018-08-28T11:51:08.184Z,24.60
2018-08-28T11:53:36.285Z,24.40
2018-08-28T11:56:04.357Z,24.00
2018-08-28T11:58:32.399Z,24.00
2018-08-28T12:01:00.456Z,23.80
2018-08-28T12:03:28.501Z,23.50
2018-08-28T12:05:56.659Z,23.50
2018-08-28T12:08:24.717Z,23.60
2018-08-28T12:10:52.799Z,23.60
2018-08-28T12:13:21.017Z,23.60
2018-08-28T12:15:49.029Z,23.60
2018-08-28T12:18:17.127Z,23.40
2018-08-28T12:20:45.210Z,23.20
2018-08-28T12:23:13.254Z,23.30
2018-08-28T12:25:41.302Z,23.60
2018-08-28T12:28:09.363Z,23.50
2018-08-28T12:30:37.431Z,23.30
2018-08-28T12:33:05.254Z,23.40
2018-08-28T12:35:33.289Z,23.50
2018-08-28T12:38:01.389Z,23.50
2018-08-28T12:40:29.445Z,23.30
2018-08-28T12:42:57.540Z,23.30
2018-08-28T12:45:25.615Z,23.20
2018-08-28T12:47:53.673Z,23.30
2018-08-28T12:50:21.724Z,23.40
2018-08-28T12:52:49.817Z,23.50
2018-08-28T12:55:17.852Z,23.70
2018-08-28T12:57:45.977Z,23.90
2018-08-28T13:00:14.024Z,24.00
2018-08-28T13:02:42.083Z,24.20
2018-08-28T13:05:10.163Z,24.50
2018-08-28T13:07:38.219Z,24.90
2018-08-28T13:10:06.327Z,24.90
2018-08-28T13:12:34.406Z,25.10
2018-08-28T13:15:02.457Z,26.10
2018-08-28T13:17:30.547Z,28.00
2018-08-28T13:19:58.618Z,28.60
2018-08-28T13:22:26.697Z,28.60
2018-08-28T13:24:54.755Z,28.40
2018-08-28T13:27:22.841Z,27.20
2018-08-28T13:29:50.949Z,27.00
2018-08-28T13:32:19.050Z,26.00
2018-08-28T13:34:47.109Z,25.30
2018-08-28T13:37:15.204Z,25.10
2018-08-28T13:39:43.270Z,25.30
2018-08-28T13:42:11.370Z,25.20
2018-08-28T13:44:39.419Z,25.00
2018-08-28T13:47:07.548Z,25.00
2018-08-28T13:49:35.675Z,24.90
2018-08-28T13:52:03.721Z,24.60
2018-08-28T13:54:31.968Z,24.40
2018-08-28T13:56:59.965Z,24.50
2018-08-28T13:59:28.089Z,24.80
2018-08-28T14:01:56.156Z,25.50
2018-08-28T14:04:24.198Z,26.30
2018-08-28T14:06:52.357Z,26.10
2018-08-28T14:09:20.426Z,26.00
2018-08-28T14:11:48.498Z,26.00
2018-08-28T14:14:16.565Z,26.10
2018-08-28T14:16:44.707Z,25.80
2018-08-28T14:19:12.786Z,25.80
2018-08-28T14:21:40.956Z,25.90
2018-08-28T14:24:09.053Z,25.50
2018-08-28T14:26:37.067Z,25.50
2018-08-28T14:29:05.130Z,25.40
2018-08-28T14:31:33.213Z,25.40
2018-08-28T14:34:01.625Z,24.90
2018-08-28T14:36:29.709Z,24.90
2018-08-28T14:38:57.853Z,25.20
2018-08-28T14:41:25.914Z,24.90
2018-08-28T14:43:53.992Z,25.10
2018-08-28T14:46:22.070Z,24.70
2018-08-28T14:48:50.141Z,24.80
2018-08-28T14:51:18.210Z,24.80
2018-08-28T14:53:46.340Z,24.90
2018-08-28T14:56:14.391Z,24.80
2018-08-28T14:58:42.523Z,24.80
2018-08-28T15:01:10.639Z,25.00
2018-08-28T15:03:38.729Z,25.00
2018-08-28T15:06:06.862Z,25.10
2018-08-28T15:08:34.997Z,25.10
2018-08-28T15:11:03.060Z,25.00
2018-08-28T15:13:31.237Z,25.20
2018-08-28T15:15:59.362Z,25.20
2018-08-28T15:18:27.457Z,25.40
2018-08-28T15:20:55.545Z,25.30
2018-08-28T15:23:23.565Z,25.10
2018-08-28T15:25:51.649Z,25.20
2018-08-28T15:28:20.145Z,24.80
2018-08-28T15:30:48.285Z,24.60
2018-08-28T15:33:16.365Z,24.80
2018-08-28T15:35:44.417Z,24.70
2018-08-28T15:38:12.501Z,24.50
2018-08-28T15:40:40.605Z,24.00
2018-08-28T15:43:08.745Z,23.90
2018-08-28T15:45:36.867Z,24.00
2018-08-28T15:48:05.056Z,24.00
2018-08-28T15:50:33.109Z,23.90
2018-08-28T15:53:01.194Z,23.80
2018-08-28T15:55:29.298Z,23.70
2018-08-28T15:57:57.398Z,23.50
2018-08-28T16:00:25.431Z,23.50
2018-08-28T16:02:53.499Z,23.30
2018-08-28T16:05:21.686Z,23.30
2018-08-28T16:07:49.750Z,23.30
2018-08-28T16:10:17.910Z,23.30
2018-08-28T16:12:46.054Z,23.10
2018-08-28T16:15:14.161Z,22.80
2018-08-28T16:17:42.254Z,22.80
2018-08-28T16:20:10.361Z,22.70
2018-08-28T16:22:43.200Z,22.80
2018-08-28T16:25:11.287Z,22.80
2018-08-28T16:27:39.358Z,22.80
2018-08-28T16:30:07.424Z,22.70
2018-08-28T16:32:35.534Z,22.70
2018-08-28T16:35:03.589Z,22.60
2018-08-28T16:37:31.654Z,22.50
2018-08-28T16:39:59.735Z,22.50
2018-08-28T16:42:27.766Z,22.50
2018-08-28T16:44:56.043Z,22.40
2018-08-28T16:47:24.086Z,22.30
2018-08-28T16:49:52.203Z,22.10
2018-08-28T16:52:20.218Z,22.00
2018-08-28T16:54:48.282Z,21.80
2018-08-28T16:57:16.377Z,21.90
2018-08-28T16:59:44.585Z,21.90
2018-08-28T17:02:12.659Z,22.00
2018-08-28T17:04:40.798Z,21.90
2018-08-28T17:07:08.875Z,21.90
2018-08-28T17:09:36.920Z,21.80
2018-08-28T17:12:05.014Z,21.70
2018-08-28T17:14:33.079Z,21.70
2018-08-28T17:17:01.172Z,21.70
2018-08-28T17:19:29.241Z,21.80
2018-08-28T17:21:57.330Z,22.00
2018-08-28T17:24:25.506Z,22.00
2018-08-28T17:26:53.684Z,22.20
2018-08-28T17:29:21.760Z,22.30
2018-08-28T17:31:56.490Z,22.50
2018-08-28T17:34:25.650Z,22.80
2018-08-28T17:36:53.774Z,22.90
2018-08-28T17:39:21.797Z,23.00
2018-08-28T17:41:49.866Z,23.10
2018-08-28T17:44:18.044Z,23.20
2018-08-28T17:46:46.101Z,23.10
2018-08-28T17:49:14.268Z,22.80
2018-08-28T17:51:42.228Z,22.60
2018-08-28T17:54:10.305Z,22.40
2018-08-28T17:56:38.389Z,22.30
2018-08-28T17:59:06.462Z,22.00
2018-08-28T18:01:34.527Z,21.80
2018-08-28T18:04:02.696Z,21.60
2018-08-28T18:06:30.719Z,21.40
2018-08-28T18:08:58.775Z,21.10
2018-08-28T18:11:26.942Z,20.90
2018-08-28T18:13:54.967Z,20.70
2018-08-28T18:16:23.071Z,20.50
2018-08-28T18:18:51.094Z,20.30
2018-08-28T18:21:19.154Z,20.30
2018-08-28T18:23:47.214Z,20.20
2018-08-28T18:26:15.307Z,20.10
2018-08-28T18:28:43.389Z,20.10
2018-08-28T18:31:11.653Z,19.90
2018-08-28T18:33:39.801Z,19.80
2018-08-28T18:36:07.928Z,19.80
2018-08-28T18:38:36.010Z,19.70
2018-08-28T18:41:04.262Z,19.60
2018-08-28T18:43:32.200Z,19.50
2018-08-28T18:46:00.338Z,19.50
2018-08-28T18:48:28.414Z,19.50
2018-08-28T18:50:56.512Z,19.40
2018-08-28T18:53:24.581Z,19.40
2018-08-28T18:55:52.659Z,19.30
2018-08-28T18:58:20.738Z,19.30
2018-08-28T19:00:48.849Z,19.20
2018-08-28T19:03:16.888Z,19.10
2018-08-28T19:05:44.975Z,19.10
2018-08-28T19:08:13.136Z,19.00
2018-08-28T19:10:41.247Z,19.00
2018-08-28T19:13:09.334Z,18.90
2018-08-28T19:15:37.476Z,18.90
2018-08-28T19:18:05.599Z,18.80
2018-08-28T19:20:33.781Z,18.80
2018-08-28T19:23:01.773Z,18.70
2018-08-28T19:25:29.899Z,18.70
2018-08-28T19:27:57.978Z,18.60
2018-08-28T19:30:26.095Z,18.60
2018-08-28T19:32:54.262Z,18.50
2018-08-28T19:35:22.411Z,18.50
2018-08-28T19:37:50.565Z,18.40
2018-08-28T19:40:19.377Z,18.40
2018-08-28T19:42:47.439Z,18.40
2018-08-28T19:45:15.490Z,18.30
2018-08-28T19:47:43.643Z,18.30
2018-08-28T19:50:12.049Z,18.30
2018-08-28T19:52:40.293Z,18.20
2018-08-28T19:55:08.469Z,18.20
2018-08-28T19:57:36.618Z,18.10
2018-08-28T20:00:05.387Z,18.10
2018-08-28T20:02:33.523Z,18.10
2018-08-28T20:05:01.597Z,18.10
2018-08-28T20:07:29.714Z,18.00
2018-08-28T20:09:57.782Z,18.00
2018-08-28T20:12:25.922Z,17.90
2018-08-28T20:14:53.990Z,17.90
2018-08-28T20:17:22.364Z,17.90
2018-08-28T20:19:50.421Z,17.80
2018-08-28T20:22:18.512Z,17.80
2018-08-28T20:24:46.574Z,17.80
2018-08-28T20:27:14.702Z,17.70
2018-08-28T20:29:42.760Z,17.70
2018-08-28T20:32:10.826Z,17.70
2018-08-28T20:34:38.943Z,17.60
2018-08-28T20:37:07.020Z,17.60
2018-08-28T20:39:35.104Z,17.50
2018-08-28T20:42:03.203Z,17.50
2018-08-28T20:44:31.258Z,17.50
2018-08-28T20:46:59.713Z,17.50
2018-08-28T20:49:27.804Z,17.40
2018-08-28T20:51:55.906Z,17.40
2018-08-28T20:54:24.218Z,17.30
2018-08-28T20:56:52.966Z,17.30
2018-08-28T20:59:21.054Z,17.30
2018-08-28T21:01:49.226Z,17.30
2018-08-28T21:04:17.376Z,17.20
2018-08-28T21:06:45.484Z,17.20
2018-08-28T21:09:13.590Z,17.20
2018-08-28T21:11:41.758Z,17.20
2018-08-28T21:14:09.819Z,17.10
2018-08-28T21:16:38.054Z,17.10
2018-08-28T21:19:06.205Z,17.10
2018-08-28T21:21:34.350Z,17.00
2018-08-28T21:24:02.492Z,17.00
2018-08-28T21:26:30.594Z,17.00
2018-08-28T21:28:58.652Z,16.90
2018-08-28T21:31:26.693Z,16.90
2018-08-28T21:33:54.750Z,16.90
2018-08-28T21:36:22.807Z,16.80
2018-08-28T21:38:50.878Z,16.80
2018-08-28T21:41:18.922Z,16.80
2018-08-28T21:43:46.986Z,16.70
2018-08-28T21:46:15.224Z,16.70
2018-08-28T21:48:43.289Z,16.70
2018-08-28T21:51:11.327Z,16.70
2018-08-28T21:53:39.375Z,16.70
2018-08-28T21:56:07.437Z,16.70
2018-08-28T21:58:35.543Z,16.60
2018-08-28T22:01:09.271Z,16.60
2018-08-28T22:03:37.477Z,16.60
2018-08-28T22:06:05.522Z,16.50
2018-08-28T22:08:33.578Z,16.50
2018-08-28T22:11:01.736Z,16.50
2018-08-28T22:13:29.808Z,16.50
2018-08-28T22:15:57.825Z,16.50
2018-08-28T22:18:25.882Z,16.50
2018-08-28T22:20:55.173Z,16.50
2018-08-28T22:23:23.630Z,16.40
2018-08-28T22:25:51.672Z,16.40
2018-08-28T22:28:19.766Z,16.40
2018-08-28T22:30:47.937Z,16.40
2018-08-28T22:33:16.198Z,16.30
2018-08-28T22:35:44.383Z,16.30
2018-08-28T22:38:12.434Z,16.20
2018-08-28T22:40:40.466Z,16.30
2018-08-28T22:43:08.522Z,16.30
2018-08-28T22:45:36.774Z,16.20
2018-08-28T22:48:05.180Z,16.20
2018-08-28T22:50:33.275Z,16.20
2018-08-28T22:53:01.330Z,16.20
2018-08-28T22:55:29.397Z,16.20
2018-08-28T22:57:57.445Z,16.20
2018-08-28T23:00:25.546Z,16.10
2018-08-28T23:02:54.961Z,16.20
2018-08-28T23:05:23.125Z,16.20
2018-08-28T23:07:51.489Z,16.10
2018-08-28T23:10:19.756Z,16.10
2018-08-28T23:12:47.806Z,16.10
2018-08-28T23:15:15.870Z,16.10
2018-08-28T23:17:43.974Z,16.10
2018-08-28T23:20:12.021Z,16.10
2018-08-28T23:22:40.066Z,16.10
2018-08-28T23:25:08.221Z,16.10
2018-08-28T23:27:36.288Z,16.00
2018-08-28T23:30:04.602Z,16.00
2018-08-28T23:32:32.725Z,16.00
2018-08-28T23:35:00.887Z,16.00
2018-08-28T23:37:29.103Z,16.00
2018-08-28T23:39:57.454Z,16.00
2018-08-28T23:42:25.639Z,15.90
2018-08-28T23:44:53.745Z,16.00
2018-08-28T23:47:21.803Z,15.90
2018-08-28T23:49:49.881Z,15.90
2018-08-28T23:52:18.037Z,15.80
2018-08-28T23:54:46.470Z,15.80
2018-08-28T23:57:14.514Z,15.80
2018-08-28T23:59:42.566Z,15.80
